Time;durP1;ratioP1;P1;durP2;ratioP2;P2;SDS_P1;SDS_P2;PMS_P1;PMS_P2;Temp;Humidity;BMP_temperature;BMP_pressure;BME280_temperature;BME280_humidity;BME280_pressure;Samples;Min_cycle;Max_cycle;Signal;HPM_P1;HPM_P2
2021/01/11 00:00:19;;;;;;;44.00;22.42;;;2.60;99.90;;;;;;5008219;28;20041;-61
2021/01/11 00:02:45;;;;;;;40.72;23.02;;;2.60;99.90;;;;;;4991231;28;20103;-64
2021/01/11 00:05:12;;;;;;;46.45;24.40;;;2.60;99.90;;;;;;4990720;28;20030;-66
2021/01/11 00:07:42;;;;;;;44.92;24.35;;;2.60;99.90;;;;;;5008784;28;20018;-64
2021/01/11 00:10:09;;;;;;;43.35;23.83;;;2.60;99.90;;;;;;4990740;28;20070;-65
2021/01/11 00:12:45;;;;;;;42.00;23.33;;;2.60;99.90;;;;;;4991115;28;20030;-65
2021/01/11 00:15:13;;;;;;;48.17;24.80;;;2.60;99.90;;;;;;4991216;28;20040;-66
2021/01/11 00:17:39;;;;;;;45.83;22.27;;;2.50;99.90;;;;;;4990592;28;20034;-65
2021/01/11 00:20:06;;;;;;;42.80;23.55;;;2.50;99.90;;;;;;5007685;28;20034;-63
2021/01/11 00:22:33;;;;;;;43.72;24.40;;;2.50;99.90;;;;;;5008341;28;20030;-62
2021/01/11 00:25:00;;;;;;;52.40;24.67;;;2.50;99.90;;;;;;5010853;28;20054;-65
2021/01/11 00:27:28;;;;;;;50.40;26.35;;;2.50;99.90;;;;;;5010760;28;20022;-63
2021/01/11 00:29:54;;;;;;;44.45;25.50;;;2.50;99.90;;;;;;5010574;28;20034;-65
2021/01/11 00:32:19;;;;;;;49.42;25.42;;;2.50;99.90;;;;;;4994415;28;20029;-65
2021/01/11 00:34:45;;;;;;;50.28;25.73;;;2.40;99.90;;;;;;5012053;28;20437;-65
2021/01/11 00:37:11;;;;;;;55.22;27.60;;;2.50;99.90;;;;;;5011858;28;20516;-65
2021/01/11 00:39:37;;;;;;;50.22;24.48;;;2.40;99.90;;;;;;4993886;28;20048;-65
2021/01/11 00:42:03;;;;;;;45.40;26.23;;;2.50;99.90;;;;;;4998976;28;20473;-65
2021/01/11 00:44:30;;;;;;;50.85;24.73;;;2.40;99.90;;;;;;5014617;28;20018;-64
2021/01/11 00:47:03;;;;;;;45.40;25.90;;;2.50;99.90;;;;;;4994823;28;20026;-65
2021/01/11 00:49:29;;;;;;;45.72;25.17;;;2.50;99.90;;;;;;5011095;28;20057;-65
2021/01/11 00:51:55;;;;;;;50.05;27.92;;;2.50;99.90;;;;;;5013821;28;20034;-63
2021/01/11 00:54:21;;;;;;;46.65;26.23;;;2.50;99.90;;;;;;5015163;28;20678;-64
2021/01/11 00:56:47;;;;;;;51.90;25.88;;;2.50;99.90;;;;;;4997701;28;20096;-65
2021/01/11 00:59:13;;;;;;;44.30;24.90;;;2.50;99.90;;;;;;4996953;28;20036;-64
2021/01/11 01:01:50;;;;;;;42.78;25.75;;;2.50;99.90;;;;;;4999087;28;20517;-65
2021/01/11 01:04:16;;;;;;;49.28;24.80;;;2.50;99.90;;;;;;5016896;28;20026;-63
2021/01/11 01:06:42;;;;;;;50.10;26.13;;;2.50;99.90;;;;;;4999053;28;20056;-64
2021/01/11 01:09:08;;;;;;;45.88;25.30;;;2.50;99.90;;;;;;5015638;28;20033;-63
2021/01/11 01:11:37;;;;;;;46.45;26.15;;;2.50;99.90;;;;;;4997537;28;20033;-65
2021/01/11 01:14:03;;;;;;;53.30;28.70;;;2.60;99.90;;;;;;4997381;28;20029;-64
2021/01/11 01:16:29;;;;;;;49.00;24.83;;;2.50;99.90;;;;;;5015014;28;20401;-66
2021/01/11 01:18:54;;;;;;;47.63;26.13;;;2.60;99.90;;;;;;4996735;28;20057;-65
2021/01/11 01:21:21;;;;;;;57.60;28.80;;;2.60;99.90;;;;;;5014790;28;20034;-64
2021/01/11 01:23:46;;;;;;;50.67;26.88;;;2.60;99.90;;;;;;5014730;28;20026;-65
2021/01/11 01:26:13;;;;;;;49.92;26.67;;;2.50;99.90;;;;;;5014764;28;20022;-65
2021/01/11 01:28:38;;;;;;;47.85;25.92;;;2.50;99.90;;;;;;4996562;28;20384;-64
2021/01/11 01:31:04;;;;;;;46.88;26.17;;;2.50;99.90;;;;;;5012794;28;20048;-64
2021/01/11 01:33:30;;;;;;;66.45;28.50;;;2.50;99.90;;;;;;4997468;28;20385;-65
2021/01/11 01:35:56;;;;;;;59.80;28.23;;;2.50;99.90;;;;;;4997203;28;20022;-64
2021/01/11 01:38:21;;;;;;;54.67;26.42;;;2.50;99.90;;;;;;5014076;28;20025;-63
2021/01/11 01:40:47;;;;;;;50.17;26.35;;;2.50;99.90;;;;;;5014409;28;20109;-64
2021/01/11 01:43:13;;;;;;;48.13;26.67;;;2.50;99.90;;;;;;4996730;28;20026;-65
2021/01/11 01:45:40;;;;;;;48.78;26.60;;;2.50;99.90;;;;;;5014344;28;20022;-64
2021/01/11 01:48:10;;;;;;;54.05;26.77;;;2.50;99.90;;;;;;5014680;28;20061;-64
2021/01/11 01:50:37;;;;;;;45.90;26.02;;;2.50;99.90;;;;;;5017966;28;20022;-65
2021/01/11 01:53:03;;;;;;;52.25;27.15;;;2.50;99.90;;;;;;4998937;28;20028;-65
2021/01/11 01:55:30;;;;;;;49.67;26.67;;;2.50;99.90;;;;;;5014487;28;20493;-64
2021/01/11 01:58:01;;;;;;;53.30;26.30;;;2.50;99.90;;;;;;5013699;28;20053;-64
2021/01/11 02:00:27;;;;;;;48.10;26.05;;;2.40;99.90;;;;;;5013427;28;20034;-64
2021/01/11 02:02:52;;;;;;;50.50;27.35;;;2.50;99.90;;;;;;4996164;28;20080;-65
2021/01/11 02:05:18;;;;;;;49.03;25.48;;;2.50;99.90;;;;;;5013802;28;20022;-63
2021/01/11 02:07:59;;;;;;;45.92;25.75;;;2.50;99.90;;;;;;4996192;28;20033;-62
2021/01/11 02:10:30;;;;;;;50.67;27.00;;;2.50;99.90;;;;;;4995684;28;20072;-64
2021/01/11 02:13:31;;;;;;;49.15;26.77;;;2.40;99.90;;;;;;4996357;28;20076;-64
2021/01/11 02:16:18;;;;;;;49.85;25.23;;;2.50;99.90;;;;;;5013907;28;20033;-64
2021/01/11 02:18:59;;;;;;;48.38;25.27;;;2.50;99.90;;;;;;4995459;28;20116;-64
2021/01/11 02:21:43;;;;;;;48.30;26.90;;;2.50;99.90;;;;;;5013567;28;20532;-64
2021/01/11 02:24:33;;;;;;;50.85;26.95;;;2.50;99.90;;;;;;4995845;28;20046;-63
2021/01/11 02:27:18;;;;;;;49.35;26.80;;;2.40;99.90;;;;;;5013697;28;20029;-64
2021/01/11 02:30:06;;;;;;;53.05;27.25;;;2.50;99.90;;;;;;5012911;28;20041;-64
2021/01/11 02:32:33;;;;;;;53.60;28.35;;;2.40;99.90;;;;;;5013932;28;20528;-65
2021/01/11 02:35:02;;;;;;;53.35;28.80;;;2.40;99.90;;;;;;5013214;28;20030;-68
2021/01/11 02:37:31;;;;;;;46.45;25.55;;;2.40;99.90;;;;;;5012855;28;20489;-62
2021/01/11 02:39:57;;;;;;;55.97;29.02;;;2.40;99.90;;;;;;5012627;28;20152;-64
2021/01/11 02:42:23;;;;;;;48.13;27.67;;;2.40;99.90;;;;;;4995819;28;20544;-64
2021/01/11 02:44:49;;;;;;;54.53;26.15;;;2.40;99.90;;;;;;5013460;28;20022;-64
2021/01/11 02:47:25;;;;;;;57.40;30.60;;;2.30;99.90;;;;;;4995579;28;20385;-64
2021/01/11 02:49:54;;;;;;;53.88;28.42;;;2.30;99.90;;;;;;4994439;28;20045;-63
2021/01/11 02:52:29;;;;;;;52.33;27.90;;;2.30;99.90;;;;;;5012581;28;20025;-65
2021/01/11 02:55:03;;;;;;;53.22;31.17;;;2.20;99.90;;;;;;4995272;28;20028;-66
2021/01/11 02:57:43;;;;;;;53.45;29.05;;;2.30;99.90;;;;;;4995406;28;20029;-62
2021/01/11 03:00:11;;;;;;;57.13;31.52;;;2.30;99.90;;;;;;5031532;23;20046;-61
2021/01/11 03:02:43;;;;;;;57.30;32.55;;;2.20;99.90;;;;;;5032306;28;20045;-59
2021/01/11 03:05:10;;;;;;;61.40;31.48;;;2.20;99.90;;;;;;5032561;28;20018;-60
2021/01/11 03:07:35;;;;;;;60.25;33.10;;;2.20;99.90;;;;;;5032045;28;20113;-61
2021/01/11 03:10:01;;;;;;;60.90;31.35;;;2.20;99.90;;;;;;5031311;28;20033;-61
2021/01/11 03:12:27;;;;;;;56.20;31.88;;;2.20;99.90;;;;;;5014584;28;20514;-60
2021/01/11 03:14:53;;;;;;;56.92;29.40;;;2.20;99.90;;;;;;5013964;28;20029;-62
2021/01/11 03:17:19;;;;;;;57.97;30.40;;;2.20;99.90;;;;;;5031715;28;20033;-60
2021/01/11 03:19:45;;;;;;;59.33;31.42;;;2.10;99.90;;;;;;5030876;28;20437;-61
2021/01/11 03:22:11;;;;;;;60.75;33.28;;;2.10;99.90;;;;;;5013556;28;20022;-60
2021/01/11 03:24:37;;;;;;;59.35;30.25;;;2.20;99.90;;;;;;4997388;28;20033;-60
2021/01/11 03:27:03;;;;;;;60.67;31.92;;;2.20;99.90;;;;;;5013838;28;20473;-61
2021/01/11 03:29:28;;;;;;;54.30;30.88;;;2.20;99.90;;;;;;5013434;28;20063;-61
2021/01/11 03:31:54;;;;;;;61.15;30.92;;;2.20;99.90;;;;;;5030674;28;20030;-61
2021/01/11 03:34:19;;;;;;;59.17;29.85;;;2.10;99.90;;;;;;5030661;28;20079;-61
2021/01/11 03:36:48;;;;;;;57.03;29.50;;;2.10;99.90;;;;;;5031162;28;20041;-61
2021/01/11 03:39:14;;;;;;;59.53;28.17;;;2.20;99.90;;;;;;5030509;28;20476;-61
2021/01/11 03:41:42;;;;;;;57.42;31.95;;;2.20;99.90;;;;;;5031241;28;20412;-61
2021/01/11 03:44:09;;;;;;;58.77;32.33;;;2.20;99.90;;;;;;5031464;28;20031;-61
2021/01/11 03:46:35;;;;;;;62.67;32.67;;;2.20;99.90;;;;;;5031516;28;20481;-61
2021/01/11 03:49:01;;;;;;;58.80;31.40;;;2.20;99.90;;;;;;5030920;28;20543;-61
2021/01/11 03:51:27;;;;;;;60.80;31.83;;;2.10;99.90;;;;;;5031926;28;20033;-61
2021/01/11 03:53:52;;;;;;;66.82;32.22;;;2.10;99.90;;;;;;5013762;28;20037;-58
2021/01/11 03:56:18;;;;;;;63.45;32.00;;;2.10;99.90;;;;;;5030994;28;20477;-60
2021/01/11 03:58:44;;;;;;;60.33;32.58;;;2.10;99.90;;;;;;5031096;28;20021;-59
2021/01/11 04:01:10;;;;;;;69.20;33.50;;;2.10;99.90;;;;;;5031670;28;20036;-61
2021/01/11 04:03:35;;;;;;;61.95;33.97;;;2.10;99.90;;;;;;5013410;28;20080;-60
2021/01/11 04:06:01;;;;;;;64.38;36.00;;;2.10;99.90;;;;;;5030946;28;20030;-61
2021/01/11 04:08:28;;;;;;;68.70;34.72;;;2.10;99.90;;;;;;5030979;28;20416;-60
2021/01/11 04:10:54;;;;;;;62.90;35.47;;;2.00;99.90;;;;;;5031495;28;20018;-59
2021/01/11 04:13:20;;;;;;;58.15;30.80;;;2.10;99.90;;;;;;5031160;28;20095;-61
2021/01/11 04:15:46;;;;;;;70.10;36.78;;;2.10;99.90;;;;;;5013728;28;20026;-61
2021/01/11 04:18:12;;;;;;;70.35;31.92;;;2.00;99.90;;;;;;5031193;28;20033;-61
2021/01/11 04:20:38;;;;;;;61.83;31.83;;;2.10;99.90;;;;;;5013112;28;20025;-60
2021/01/11 04:23:04;;;;;;;66.50;34.00;;;2.10;99.90;;;;;;5031434;28;20033;-59
2021/01/11 04:25:31;;;;;;;61.78;32.88;;;2.10;99.90;;;;;;5031401;28;20017;-61
2021/01/11 04:27:59;;;;;;;64.97;33.60;;;2.00;99.90;;;;;;5016801;28;20432;-61
2021/01/11 04:30:26;;;;;;;66.68;33.03;;;2.00;99.90;;;;;;5017093;28;20029;-60
2021/01/11 04:32:52;;;;;;;63.42;31.50;;;2.00;99.90;;;;;;5035180;28;20108;-60
2021/01/11 04:35:21;;;;;;;72.25;32.95;;;2.00;99.90;;;;;;5035629;28;20361;-61
2021/01/11 04:37:46;;;;;;;64.43;34.85;;;2.00;99.90;;;;;;5034765;28;20029;-61
2021/01/11 04:40:13;;;;;;;64.28;33.22;;;2.00;99.90;;;;;;5016784;28;20577;-61
2021/01/11 04:42:41;;;;;;;58.47;31.48;;;2.00;99.90;;;;;;5017218;28;20028;-59
2021/01/11 04:45:08;;;;;;;63.80;33.08;;;2.00;99.90;;;;;;5017240;28;20030;-61
2021/01/11 04:47:35;;;;;;;58.85;29.95;;;1.90;99.90;;;;;;5034678;28;20538;-61
2021/01/11 04:50:04;;;;;;;52.90;28.23;;;1.90;99.90;;;;;;5034169;28;20113;-61
2021/01/11 04:52:32;;;;;;;53.22;27.20;;;1.90;99.90;;;;;;5034381;28;20033;-57
2021/01/11 04:55:01;;;;;;;52.25;27.10;;;1.80;99.90;;;;;;5034400;28;20036;-60
2021/01/11 04:57:32;;;;;;;47.80;24.13;;;1.80;99.90;;;;;;5034513;28;20033;-61
2021/01/11 05:00:08;;;;;;;50.97;26.35;;;1.80;99.90;;;;;;5016330;28;20030;-61
2021/01/11 05:02:41;;;;;;;55.45;25.92;;;1.80;99.90;;;;;;5016942;28;20021;-62
2021/01/11 05:05:07;;;;;;;52.25;26.85;;;1.70;99.90;;;;;;5034725;28;20461;-61
2021/01/11 05:07:33;;;;;;;51.20;25.65;;;1.70;99.90;;;;;;5034498;28;20056;-62
2021/01/11 05:10:00;;;;;;;54.50;28.63;;;1.70;99.90;;;;;;5033985;28;20387;-61
2021/01/11 05:12:27;;;;;;;55.30;31.90;;;1.70;99.90;;;;;;5034721;28;20111;-62
2021/01/11 05:15:15;;;;;;;73.80;32.60;;;1.70;99.90;;;;;;5034749;28;20063;-61
2021/01/11 05:17:45;;;;;;;58.85;29.45;;;1.70;99.90;;;;;;5016621;28;20025;-61
2021/01/11 05:20:25;;;;;;;50.50;23.60;;;1.70;99.90;;;;;;5033632;28;20021;-61
2021/01/11 05:22:53;;;;;;;40.22;19.25;;;1.60;99.90;;;;;;5034381;28;20033;-61
2021/01/11 05:25:20;;;;;;;34.88;15.93;;;1.50;99.90;;;;;;5016468;28;20044;-62
2021/01/11 05:28:06;;;;;;;32.43;16.50;;;1.50;99.90;;;;;;5016033;28;20032;-60
2021/01/11 05:30:38;;;;;;;30.77;15.90;;;1.40;99.90;;;;;;5015548;28;20279;-60
2021/01/11 05:33:08;;;;;;;36.17;15.63;;;1.30;99.90;;;;;;5016205;28;20026;-64
2021/01/11 05:35:36;;;;;;;38.17;16.10;;;1.30;99.90;;;;;;5034239;28;20021;-61
2021/01/11 05:38:12;;;;;;;34.33;16.33;;;1.20;99.90;;;;;;5015162;28;20025;-61
2021/01/11 05:40:38;;;;;;;38.00;17.90;;;1.30;99.90;;;;;;5015577;28;20104;-60
2021/01/11 05:43:03;;;;;;;36.60;18.90;;;1.20;99.90;;;;;;5014536;28;20017;-58
2021/01/11 05:45:33;;;;;;;38.53;20.38;;;1.20;99.90;;;;;;5009118;28;20060;-62
2021/01/11 05:48:05;;;;;;;47.38;23.50;;;1.20;99.90;;;;;;5016151;28;20084;-60
2021/01/11 05:50:30;;;;;;;52.55;25.95;;;1.30;99.90;;;;;;5014996;28;20104;-63
2021/01/11 05:52:56;;;;;;;48.28;24.30;;;1.20;99.90;;;;;;5024404;28;20105;-63
2021/01/11 05:55:30;;;;;;;49.22;28.42;;;1.30;99.90;;;;;;5013196;28;20484;-61
2021/01/11 05:58:03;;;;;;;61.70;32.83;;;1.30;99.90;;;;;;5012956;28;20025;-63
2021/01/11 06:00:34;;;;;;;61.85;33.78;;;1.30;99.90;;;;;;4995195;28;20084;-61
2021/01/11 06:03:01;;;;;;;64.60;33.33;;;1.30;99.90;;;;;;5015248;28;20033;-60
2021/01/11 06:05:29;;;;;;;63.25;32.38;;;1.30;99.90;;;;;;5015385;28;20433;-63
2021/01/11 06:07:55;;;;;;;57.33;30.15;;;1.30;99.90;;;;;;5014916;28;20017;-62
2021/01/11 06:10:22;;;;;;;49.30;24.08;;;1.20;99.90;;;;;;5032494;28;20021;-63
2021/01/11 06:12:49;;;;;;;51.85;27.75;;;1.20;99.90;;;;;;5033326;28;20441;-63
2021/01/11 06:15:26;;;;;;;50.97;28.77;;;1.20;99.90;;;;;;5014653;28;20021;-63
2021/01/11 06:17:56;;;;;;;46.35;25.15;;;1.20;99.90;;;;;;5012076;28;20037;-63
2021/01/11 06:20:27;;;;;;;48.10;25.48;;;1.20;99.90;;;;;;5012644;28;20053;-63
2021/01/11 06:22:52;;;;;;;48.28;26.63;;;1.20;99.90;;;;;;4995799;28;20037;-62
2021/01/11 06:25:21;;;;;;;49.13;23.92;;;1.20;99.90;;;;;;4994882;28;20099;-63
2021/01/11 06:27:56;;;;;;;50.22;25.35;;;1.20;99.90;;;;;;4995010;28;20076;-60
2021/01/11 06:30:40;;;;;;;47.63;24.40;;;1.20;99.90;;;;;;5011768;28;20026;-63
2021/01/11 06:33:06;;;;;;;47.92;26.38;;;1.20;99.90;;;;;;5012565;28;20044;-63
2021/01/11 06:35:46;;;;;;;52.58;27.83;;;1.20;99.90;;;;;;5012564;28;20022;-62
2021/01/11 06:38:22;;;;;;;49.83;23.60;;;1.20;99.90;;;;;;4994918;28;20052;-63
2021/01/11 06:41:01;;;;;;;57.13;28.88;;;1.20;99.90;;;;;;5012266;28;20058;-63
2021/01/11 06:43:28;;;;;;;51.60;26.70;;;1.20;99.90;;;;;;5011786;28;20100;-62
2021/01/11 06:45:55;;;;;;;51.75;24.35;;;1.20;99.90;;;;;;5007639;28;20077;-63
2021/01/11 06:48:22;;;;;;;51.72;27.25;;;1.20;99.90;;;;;;5009505;28;20061;-57
2021/01/11 06:50:49;;;;;;;51.30;26.65;;;1.20;99.90;;;;;;5011276;28;20488;-63
2021/01/11 06:53:27;;;;;;;52.70;27.10;;;1.20;99.90;;;;;;5010239;28;20033;-63
2021/01/11 06:56:05;;;;;;;51.03;26.30;;;1.20;99.90;;;;;;5011528;28;20045;-63
2021/01/11 06:58:34;;;;;;;;;;;1.20;99.90;;;;;;5009392;28;20026;-63
2021/01/11 07:01:06;;;;;;;52.08;26.42;;;1.30;99.90;;;;;;5010479;28;19924;-63
2021/01/11 07:03:48;;;;;;;53.15;27.23;;;1.30;99.90;;;;;;5013411;28;20041;-63
2021/01/11 07:06:35;;;;;;;57.42;28.42;;;1.30;99.90;;;;;;5031051;28;20428;-63
2021/01/11 07:09:14;;;;;;;53.47;26.90;;;1.30;99.90;;;;;;5012603;28;20029;-63
2021/01/11 07:11:48;;;;;;;56.15;26.23;;;1.30;99.90;;;;;;5013201;28;20492;-63
2021/01/11 07:14:15;;;;;;;53.88;29.30;;;1.30;99.90;;;;;;5021415;28;20035;-63
2021/01/11 07:16:44;;;;;;;56.33;30.87;;;1.20;99.90;;;;;;5010150;28;20477;-63
2021/01/11 07:19:14;;;;;;;51.15;29.35;;;1.20;99.90;;;;;;5003826;28;20421;-63
2021/01/11 07:21:41;;;;;;;58.40;29.63;;;1.30;99.90;;;;;;4993419;28;20022;-63
2021/01/11 07:24:08;;;;;;;67.32;31.45;;;1.20;99.90;;;;;;5011450;28;20030;-64
2021/01/11 07:26:35;;;;;;;60.53;31.40;;;1.20;99.90;;;;;;4993631;28;20381;-62
2021/01/11 07:29:12;;;;;;;67.00;31.63;;;1.30;99.90;;;;;;4992682;28;20073;-62
2021/01/11 07:31:43;;;;;;;65.78;31.40;;;1.30;99.90;;;;;;5009073;28;20026;-62
2021/01/11 07:34:19;;;;;;;62.65;33.10;;;1.30;99.90;;;;;;5031245;28;20492;-61
2021/01/11 07:36:47;;;;;;;65.95;32.10;;;1.30;99.90;;;;;;5013487;28;20459;-61
2021/01/11 07:39:19;;;;;;;66.00;33.55;;;1.20;99.90;;;;;;5012674;28;20453;-63
2021/01/11 07:41:50;;;;;;;68.53;29.95;;;1.30;99.90;;;;;;5013497;28;20049;-63
2021/01/11 07:44:39;;;;;;;76.28;34.08;;;1.30;99.90;;;;;;5013303;28;20026;-63
2021/01/11 07:47:04;;;;;;;74.50;34.63;;;1.30;99.90;;;;;;5013385;28;20025;-63
2021/01/11 07:49:33;;;;;;;68.22;34.47;;;1.30;99.90;;;;;;5029459;28;20203;-65
2021/01/11 07:52:03;;;;;;;;;;;1.30;99.90;;;;;;5011855;28;20496;-65
2021/01/11 07:54:29;;;;;;;61.97;31.63;;;1.30;99.90;;;;;;5011356;28;19909;-65
2021/01/11 07:56:55;;;;;;;62.72;31.55;;;1.30;99.90;;;;;;5011236;28;20389;-65
2021/01/11 07:59:20;;;;;;;71.85;35.20;;;1.30;99.90;;;;;;5010205;28;20052;-65
2021/01/11 08:01:48;;;;;;;70.53;33.15;;;1.30;99.90;;;;;;5033555;28;20037;-65
2021/01/11 08:04:16;;;;;;;69.95;35.00;;;1.40;99.90;;;;;;5017714;28;20459;-66
2021/01/11 08:06:54;;;;;;;71.63;34.53;;;1.30;99.90;;;;;;5034798;28;20021;-66
2021/01/11 08:09:22;;;;;;;69.72;31.73;;;1.40;99.90;;;;;;5016648;28;20497;-65
2021/01/11 08:11:49;;;;;;;79.47;36.55;;;1.40;99.90;;;;;;5034895;28;20047;-65
2021/01/11 08:14:15;;;;;;;79.32;38.05;;;1.30;99.90;;;;;;5034166;28;20034;-65
2021/01/11 08:16:43;;;;;;;68.70;34.95;;;1.40;99.90;;;;;;5034870;28;20056;-67
2021/01/11 08:19:09;;;;;;;;;;;1.40;99.90;;;;;;5034712;28;20109;-66
2021/01/11 08:21:36;;;;;;;57.97;29.00;;;1.40;99.90;;;;;;5034605;28;19909;-67
2021/01/11 08:24:09;;;;;;;73.22;31.52;;;1.50;99.90;;;;;;5034655;28;20026;-66
2021/01/11 08:27:06;;;;;;;69.75;33.97;;;1.50;99.90;;;;;;5017011;28;20033;-66
2021/01/11 08:29:36;;;;;;;70.03;33.90;;;1.50;99.90;;;;;;5033660;28;20022;-66
2021/01/11 08:32:10;;;;;;;65.55;34.22;;;1.50;99.90;;;;;;5034712;28;20452;-67
2021/01/11 08:34:37;;;;;;;66.65;36.20;;;1.50;99.90;;;;;;5034762;28;20427;-66
2021/01/11 08:37:28;;;;;;;71.68;36.20;;;1.60;99.90;;;;;;5016529;28;20036;-66
2021/01/11 08:39:54;;;;;;;77.88;37.90;;;1.60;99.90;;;;;;5033307;28;20057;-67
2021/01/11 08:42:22;;;;;;;83.88;39.03;;;1.60;99.90;;;;;;5015462;28;20120;-65
2021/01/11 08:44:47;;;;;;;68.72;37.67;;;1.60;99.90;;;;;;5034330;28;20029;-65
2021/01/11 08:47:13;;;;;;;72.18;34.92;;;1.60;99.90;;;;;;5014677;28;20026;-65
2021/01/11 08:49:58;;;;;;;70.05;34.88;;;1.70;99.90;;;;;;5013311;28;20033;-66
2021/01/11 08:52:33;;;;;;;76.60;37.38;;;1.70;99.90;;;;;;5014423;28;20030;-66
2021/01/11 08:55:09;;;;;;;66.65;36.22;;;1.70;99.90;;;;;;5014474;28;20029;-67
2021/01/11 08:57:35;;;;;;;64.30;32.58;;;1.70;99.90;;;;;;5013387;28;20105;-67
2021/01/11 09:00:15;;;;;;;71.65;36.53;;;1.80;99.90;;;;;;5022099;28;20172;-67
2021/01/11 09:02:47;;;;;;;66.57;34.78;;;1.80;99.90;;;;;;5015276;28;20101;-67
2021/01/11 09:05:18;;;;;;;66.13;33.38;;;1.80;99.90;;;;;;5013634;28;20509;-67
2021/01/11 09:07:45;;;;;;;64.22;36.20;;;1.90;99.90;;;;;;4996271;28;20030;-65
2021/01/11 09:10:19;;;;;;;70.18;34.45;;;1.90;99.90;;;;;;4995470;28;20026;-66
2021/01/11 09:12:46;;;;;;;63.78;34.47;;;1.90;99.90;;;;;;5012628;28;20060;-67
2021/01/11 09:15:22;;;;;;;65.63;35.40;;;2.00;99.90;;;;;;5014008;28;20025;-67
2021/01/11 09:18:10;;;;;;;63.75;36.42;;;2.00;99.90;;;;;;4996127;28;20026;-67
2021/01/11 09:20:40;;;;;;;57.67;32.38;;;2.00;99.90;;;;;;4995559;28;20548;-66
2021/01/11 09:23:07;;;;;;;64.38;34.50;;;2.00;99.90;;;;;;5013529;28;20171;-66
2021/01/11 09:25:34;;;;;;;60.85;30.15;;;2.00;99.90;;;;;;5013487;28;20022;-65
2021/01/11 09:28:05;;;;;;;66.53;34.90;;;2.10;99.90;;;;;;5000629;28;20061;-66
2021/01/11 09:30:32;;;;;;;57.67;29.08;;;2.10;99.90;;;;;;5024165;28;20370;-67
2021/01/11 09:32:58;;;;;;;59.15;32.05;;;2.10;99.90;;;;;;5007264;28;20453;-64
2021/01/11 09:35:25;;;;;;;59.03;28.13;;;2.10;99.90;;;;;;5029863;28;20159;-67
2021/01/11 09:37:52;;;;;;;63.75;29.02;;;2.10;99.90;;;;;;5024176;28;20041;-67
2021/01/11 09:40:20;;;;;;;60.88;31.50;;;2.10;99.90;;;;;;5006447;28;20412;-67
2021/01/11 09:42:48;;;;;;;56.17;29.50;;;2.10;99.90;;;;;;5022351;28;20105;-65
2021/01/11 09:45:15;;;;;;;62.20;31.40;;;2.20;99.90;;;;;;5026929;28;20013;-67
2021/01/11 09:47:43;;;;;;;53.60;28.45;;;2.20;99.90;;;;;;5022665;28;20052;-65
2021/01/11 09:50:10;;;;;;;57.50;28.63;;;2.20;99.90;;;;;;5003755;28;20132;-63
2021/01/11 09:52:36;;;;;;;50.65;28.90;;;2.20;99.90;;;;;;5022400;28;20017;-66
2021/01/11 09:55:06;;;;;;;54.78;27.85;;;2.20;99.90;;;;;;4989548;28;20036;-67
2021/01/11 09:57:39;;;;;;;49.97;27.45;;;2.20;99.90;;;;;;5022017;28;20026;-66
2021/01/11 10:00:14;;;;;;;51.20;28.92;;;2.20;99.90;;;;;;5005450;28;20104;-67
2021/01/11 10:02:46;;;;;;;47.85;23.55;;;2.30;99.90;;;;;;5009216;28;20060;-66
2021/01/11 10:05:11;;;;;;;53.50;24.63;;;2.30;99.90;;;;;;5032705;28;20095;-66
2021/01/11 10:07:37;;;;;;;42.35;22.38;;;2.30;99.90;;;;;;5030619;28;20509;-64
2021/01/11 10:10:03;;;;;;;49.33;25.30;;;2.30;99.90;;;;;;4994521;28;20026;-67
2021/01/11 10:12:30;;;;;;;48.80;25.33;;;2.30;99.90;;;;;;4994677;28;20030;-66
2021/01/11 10:14:56;;;;;;;46.50;22.55;;;2.30;99.90;;;;;;4995226;28;20064;-66
2021/01/11 10:17:22;;;;;;;49.75;24.27;;;2.30;99.90;;;;;;4995612;28;20056;-66
2021/01/11 10:19:47;;;;;;;48.17;24.17;;;2.30;99.90;;;;;;5012451;28;20100;-65
2021/01/11 10:22:13;;;;;;;45.90;22.48;;;2.30;99.90;;;;;;5012586;28;20113;-66
2021/01/11 10:24:39;;;;;;;45.65;21.50;;;2.30;99.90;;;;;;5012426;28;20102;-66
2021/01/11 10:27:04;;;;;;;47.17;23.58;;;2.30;99.90;;;;;;5011653;28;20566;-67
2021/01/11 10:29:30;;;;;;;45.78;24.55;;;2.40;99.90;;;;;;5011577;28;20022;-66
2021/01/11 10:31:56;;;;;;;47.15;25.20;;;2.30;99.90;;;;;;5011908;28;20153;-66
2021/01/11 10:34:22;;;;;;;53.80;24.80;;;2.30;99.90;;;;;;4994650;28;20345;-66
2021/01/11 10:36:49;;;;;;;42.78;23.48;;;2.30;99.90;;;;;;4994421;28;20116;-65
2021/01/11 10:39:20;;;;;;;51.00;24.13;;;2.30;99.90;;;;;;4994286;28;20040;-67
2021/01/11 10:41:49;;;;;;;46.75;22.00;;;2.30;99.90;;;;;;5011627;28;20276;-66
2021/01/11 10:44:14;;;;;;;45.85;24.42;;;2.30;99.90;;;;;;5012107;28;20022;-68
2021/01/11 10:46:40;;;;;;;40.15;20.40;;;2.20;99.90;;;;;;5011920;28;20033;-65
2021/01/11 10:49:06;;;;;;;40.90;23.15;;;2.20;99.90;;;;;;5010303;28;20022;-66
2021/01/11 10:51:33;;;;;;;47.85;25.60;;;2.20;99.90;;;;;;5012475;28;20045;-66
2021/01/11 10:54:00;;;;;;;42.35;20.33;;;2.30;99.90;;;;;;5011113;28;20058;-66
2021/01/11 10:56:25;;;;;;;41.05;23.02;;;2.30;99.90;;;;;;5011442;28;20093;-66
2021/01/11 10:58:51;;;;;;;42.50;22.85;;;2.20;99.90;;;;;;5010177;28;20026;-67
2021/01/11 11:01:17;;;;;;;44.17;21.42;;;2.30;99.90;;;;;;5011781;28;20460;-65
2021/01/11 11:03:43;;;;;;;47.03;22.67;;;2.30;99.90;;;;;;5012061;28;20030;-67
2021/01/11 11:06:09;;;;;;;43.03;22.40;;;2.30;99.90;;;;;;5010491;28;20373;-64
2021/01/11 11:08:34;;;;;;;46.83;22.05;;;2.20;99.90;;;;;;5011283;28;20026;-67
2021/01/11 11:11:00;;;;;;;44.67;21.00;;;2.30;99.90;;;;;;5010820;28;20033;-67
2021/01/11 11:13:26;;;;;;;43.83;21.83;;;2.20;99.90;;;;;;5010423;28;20026;-66
2021/01/11 11:15:52;;;;;;;38.00;19.60;;;2.20;99.90;;;;;;5010019;28;20041;-68
2021/01/11 11:18:18;;;;;;;42.60;19.23;;;2.30;99.90;;;;;;5011155;28;20585;-63
2021/01/11 11:20:46;;;;;;;43.10;21.40;;;2.30;99.90;;;;;;5011927;28;20022;-65
2021/01/11 11:23:12;;;;;;;42.33;20.90;;;2.30;99.90;;;;;;5012087;28;20037;-65
2021/01/11 11:25:42;;;;;;;46.03;21.20;;;2.30;99.90;;;;;;5010215;28;20037;-64
2021/01/11 11:28:08;;;;;;;43.35;21.45;;;2.30;99.90;;;;;;5010203;28;20026;-65
2021/01/11 11:30:33;;;;;;;41.38;20.38;;;2.30;99.90;;;;;;5009793;28;20502;-64
2021/01/11 11:32:59;;;;;;;43.78;20.60;;;2.30;99.90;;;;;;5011872;28;20025;-67
2021/01/11 11:35:25;;;;;;;44.72;20.75;;;2.30;99.90;;;;;;5011141;28;20029;-66
2021/01/11 11:37:51;;;;;;;43.70;20.92;;;2.30;99.90;;;;;;5011242;28;20022;-66
2021/01/11 11:40:17;;;;;;;41.20;18.90;;;2.30;99.90;;;;;;5011206;28;20053;-62
2021/01/11 11:42:44;;;;;;;35.78;17.23;;;2.40;99.90;;;;;;5010777;28;20454;-65
2021/01/11 11:45:14;;;;;;;41.08;20.13;;;2.30;99.90;;;;;;5012462;28;20437;-64
2021/01/11 11:47:41;;;;;;;40.95;18.70;;;2.30;99.90;;;;;;5011109;28;20026;-63
2021/01/11 11:50:12;;;;;;;42.38;20.15;;;2.40;99.90;;;;;;5009345;28;20026;-64
2021/01/11 11:52:38;;;;;;;44.08;19.80;;;2.30;99.90;;;;;;5009618;28;20026;-60
2021/01/11 11:55:06;;;;;;;38.83;19.08;;;2.40;99.90;;;;;;5010322;28;20030;-65
2021/01/11 11:57:32;;;;;;;39.85;18.02;;;2.30;99.90;;;;;;5012244;28;20034;-63
2021/01/11 11:59:58;;;;;;;35.97;18.67;;;2.30;99.90;;;;;;5012060;28;20401;-64
2021/01/11 12:02:23;;;;;;;38.70;21.13;;;2.40;99.90;;;;;;5012115;28;20030;-62
2021/01/11 12:04:49;;;;;;;38.03;20.67;;;2.30;99.90;;;;;;5013991;28;20022;-61
2021/01/11 12:07:16;;;;;;;39.88;16.23;;;2.40;99.90;;;;;;5014234;28;20029;-64
2021/01/11 12:09:42;;;;;;;37.05;17.88;;;2.40;99.90;;;;;;5009640;28;20080;-58
2021/01/11 12:12:08;;;;;;;38.92;16.63;;;2.40;99.90;;;;;;5009953;28;20030;-64
2021/01/11 12:14:34;;;;;;;36.97;17.83;;;2.40;99.90;;;;;;4666026;28;10000285;-62
2021/01/11 12:17:01;;;;;;;33.22;15.40;;;2.40;99.90;;;;;;5010139;28;20033;-63
2021/01/11 12:19:27;;;;;;;37.70;16.95;;;2.40;99.90;;;;;;5010199;28;20033;-64
2021/01/11 12:21:52;;;;;;;39.85;16.88;;;2.40;99.90;;;;;;5027836;28;20850;-64
2021/01/11 12:24:18;;;;;;;39.75;17.92;;;2.40;99.90;;;;;;5028073;28;20718;-64
2021/01/11 12:26:49;;;;;;;35.33;16.75;;;2.40;99.90;;;;;;5009514;28;20032;-64
2021/01/11 12:29:15;;;;;;;35.58;17.70;;;2.40;99.90;;;;;;5009487;28;20396;-64
2021/01/11 12:31:42;;;;;;;35.90;17.20;;;2.40;99.90;;;;;;5027444;28;20468;-65
2021/01/11 12:34:09;;;;;;;38.25;16.10;;;2.50;99.90;;;;;;5006864;28;20042;-64
2021/01/11 12:36:37;;;;;;;35.90;17.13;;;2.50;99.90;;;;;;5021915;28;20022;-64
2021/01/11 12:39:10;;;;;;;33.22;17.25;;;2.50;99.90;;;;;;5017038;28;20025;-64
2021/01/11 12:41:38;;;;;;;32.83;15.55;;;2.50;99.90;;;;;;5007247;28;20053;-64
2021/01/11 12:44:08;;;;;;;35.25;17.02;;;2.50;99.90;;;;;;4990398;28;20022;-65
2021/01/11 12:46:34;;;;;;;37.10;17.35;;;2.50;99.90;;;;;;5000386;28;20022;-64